sensor_id;sensor_type;location;lat;lon;timestamp;P1;durP1;ratioP1;P2;durP2;ratioP2
32094;SDS011;18608;53.688;10.748;2022-12-18T00:01:57;40.43;;;22.50;;
32094;SDS011;18608;53.688;10.748;2022-12-18T00:04:24;40.70;;;22.53;;
32094;SDS011;18608;53.688;10.748;2022-12-18T00:06:51;46.27;;;23.70;;
32094;SDS011;18608;53.688;10.748;2022-12-18T00:09:18;38.97;;;22.03;;
32094;SDS011;18608;53.688;10.748;2022-12-18T00:11:44;36.80;;;22.23;;
32094;SDS011;18608;53.688;10.748;2022-12-18T00:14:13;40.37;;;22.40;;
32094;SDS011;18608;53.688;10.748;2022-12-18T00:16:38;34.60;;;22.10;;
32094;SDS011;18608;53.688;10.748;2022-12-18T00:19:05;47.23;;;23.43;;
32094;SDS011;18608;53.688;10.748;2022-12-18T00:21:32;38.10;;;21.90;;
32094;SDS011;18608;53.688;10.748;2022-12-18T00:23:58;45.80;;;24.93;;
32094;SDS011;18608;53.688;10.748;2022-12-18T00:26:26;46.17;;;24.53;;
32094;SDS011;18608;53.688;10.748;2022-12-18T00:28:54;43.43;;;23.77;;
32094;SDS011;18608;53.688;10.748;2022-12-18T00:31:22;47.40;;;24.80;;
32094;SDS011;18608;53.688;10.748;2022-12-18T00:33:49;45.20;;;22.93;;
32094;SDS011;18608;53.688;10.748;2022-12-18T00:36:16;48.37;;;24.40;;
32094;SDS011;18608;53.688;10.748;2022-12-18T00:38:47;41.87;;;21.30;;
32094;SDS011;18608;53.688;10.748;2022-12-18T00:41:13;40.47;;;22.43;;
32094;SDS011;18608;53.688;10.748;2022-12-18T00:44:03;50.53;;;25.67;;
32094;SDS011;18608;53.688;10.748;2022-12-18T00:46:30;40.73;;;21.27;;
32094;SDS011;18608;53.688;10.748;2022-12-18T00:48:57;38.87;;;21.37;;
32094;SDS011;18608;53.688;10.748;2022-12-18T00:51:23;49.03;;;22.57;;
32094;SDS011;18608;53.688;10.748;2022-12-18T00:53:49;39.67;;;21.20;;
32094;SDS011;18608;53.688;10.748;2022-12-18T00:56:15;62.43;;;25.20;;
32094;SDS011;18608;53.688;10.748;2022-12-18T00:58:41;40.30;;;22.10;;
32094;SDS011;18608;53.688;10.748;2022-12-18T01:01:06;44.43;;;23.23;;
32094;SDS011;18608;53.688;10.748;2022-12-18T01:03:32;46.57;;;23.00;;
32094;SDS011;18608;53.688;10.748;2022-12-18T01:05:58;46.30;;;21.50;;
32094;SDS011;18608;53.688;10.748;2022-12-18T01:08:23;39.77;;;22.90;;
32094;SDS011;18608;53.688;10.748;2022-12-18T01:10:49;39.73;;;20.40;;
32094;SDS011;18608;53.688;10.748;2022-12-18T01:13:15;40.00;;;21.93;;
32094;SDS011;18608;53.688;10.748;2022-12-18T01:15:47;41.37;;;23.97;;
32094;SDS011;18608;53.688;10.748;2022-12-18T01:18:14;43.50;;;23.23;;
32094;SDS011;18608;53.688;10.748;2022-12-18T01:20:39;44.37;;;22.80;;
32094;SDS011;18608;53.688;10.748;2022-12-18T01:23:05;44.83;;;23.17;;
32094;SDS011;18608;53.688;10.748;2022-12-18T01:25:31;36.40;;;21.37;;
32094;SDS011;18608;53.688;10.748;2022-12-18T01:27:58;39.57;;;23.13;;
32094;SDS011;18608;53.688;10.748;2022-12-18T01:30:23;36.80;;;20.03;;
32094;SDS011;18608;53.688;10.748;2022-12-18T01:32:49;43.60;;;21.70;;
32094;SDS011;18608;53.688;10.748;2022-12-18T01:35:14;41.57;;;22.60;;
32094;SDS011;18608;53.688;10.748;2022-12-18T01:37:40;42.73;;;19.70;;
32094;SDS011;18608;53.688;10.748;2022-12-18T01:40:06;49.23;;;22.77;;
32094;SDS011;18608;53.688;10.748;2022-12-18T01:42:32;31.83;;;19.30;;
32094;SDS011;18608;53.688;10.748;2022-12-18T01:50:31;38.13;;;21.87;;
32094;SDS011;18608;53.688;10.748;2022-12-18T01:52:58;50.83;;;21.50;;
32094;SDS011;18608;53.688;10.748;2022-12-18T01:55:25;41.37;;;20.50;;
32094;SDS011;18608;53.688;10.748;2022-12-18T01:57:54;51.97;;;23.60;;
32094;SDS011;18608;53.688;10.748;2022-12-18T02:00:23;48.50;;;21.90;;
32094;SDS011;18608;53.688;10.748;2022-12-18T02:02:50;41.00;;;25.80;;
32094;SDS011;18608;53.688;10.748;2022-12-18T02:05:17;39.97;;;21.10;;
32094;SDS011;18608;53.688;10.748;2022-12-18T02:13:43;44.97;;;23.63;;
32094;SDS011;18608;53.688;10.748;2022-12-18T02:18:47;37.83;;;20.13;;
32094;SDS011;18608;53.688;10.748;2022-12-18T02:26:43;39.97;;;21.00;;
32094;SDS011;18608;53.688;10.748;2022-12-18T02:31:57;43.70;;;22.73;;
32094;SDS011;18608;53.688;10.748;2022-12-18T02:34:26;37.40;;;22.43;;
32094;SDS011;18608;53.688;10.748;2022-12-18T02:36:55;42.27;;;21.17;;
32094;SDS011;18608;53.688;10.748;2022-12-18T02:39:24;31.53;;;18.77;;
32094;SDS011;18608;53.688;10.748;2022-12-18T02:41:51;43.80;;;23.57;;
32094;SDS011;18608;53.688;10.748;2022-12-18T02:44:17;45.70;;;24.77;;
32094;SDS011;18608;53.688;10.748;2022-12-18T02:46:44;46.00;;;22.00;;
32094;SDS011;18608;53.688;10.748;2022-12-18T02:54:49;43.60;;;20.07;;
32094;SDS011;18608;53.688;10.748;2022-12-18T02:57:34;37.43;;;21.57;;
32094;SDS011;18608;53.688;10.748;2022-12-18T03:00:10;40.47;;;20.40;;
32094;SDS011;18608;53.688;10.748;2022-12-18T03:02:47;53.77;;;22.80;;
32094;SDS011;18608;53.688;10.748;2022-12-18T03:05:21;41.63;;;20.87;;
32094;SDS011;18608;53.688;10.748;2022-12-18T03:08:00;43.13;;;20.07;;
32094;SDS011;18608;53.688;10.748;2022-12-18T03:10:34;46.03;;;21.80;;
32094;SDS011;18608;53.688;10.748;2022-12-18T03:13:06;39.97;;;21.90;;
32094;SDS011;18608;53.688;10.748;2022-12-18T03:15:39;42.83;;;19.80;;
32094;SDS011;18608;53.688;10.748;2022-12-18T03:18:14;50.77;;;21.50;;
32094;SDS011;18608;53.688;10.748;2022-12-18T03:20:44;50.57;;;21.53;;
32094;SDS011;18608;53.688;10.748;2022-12-18T03:23:12;38.57;;;20.00;;
32094;SDS011;18608;53.688;10.748;2022-12-18T03:25:41;40.67;;;20.27;;
32094;SDS011;18608;53.688;10.748;2022-12-18T03:28:13;39.10;;;17.97;;
32094;SDS011;18608;53.688;10.748;2022-12-18T03:30:41;42.43;;;21.50;;
32094;SDS011;18608;53.688;10.748;2022-12-18T03:33:12;39.20;;;21.07;;
32094;SDS011;18608;53.688;10.748;2022-12-18T03:36:01;46.23;;;22.30;;
32094;SDS011;18608;53.688;10.748;2022-12-18T03:38:27;47.17;;;22.47;;
32094;SDS011;18608;53.688;10.748;2022-12-18T03:40:59;42.87;;;20.70;;
32094;SDS011;18608;53.688;10.748;2022-12-18T03:43:43;46.10;;;21.60;;
32094;SDS011;18608;53.688;10.748;2022-12-18T03:46:24;46.60;;;21.67;;
32094;SDS011;18608;53.688;10.748;2022-12-18T03:48:57;32.57;;;17.90;;
32094;SDS011;18608;53.688;10.748;2022-12-18T03:51:28;34.90;;;20.70;;
32094;SDS011;18608;53.688;10.748;2022-12-18T03:54:22;37.60;;;20.13;;
32094;SDS011;18608;53.688;10.748;2022-12-18T03:56:52;49.63;;;20.57;;
32094;SDS011;18608;53.688;10.748;2022-12-18T03:59:23;38.30;;;18.63;;
32094;SDS011;18608;53.688;10.748;2022-12-18T04:01:51;38.03;;;18.07;;
32094;SDS011;18608;53.688;10.748;2022-12-18T04:04:18;42.87;;;19.70;;
32094;SDS011;18608;53.688;10.748;2022-12-18T04:06:46;42.10;;;20.50;;
32094;SDS011;18608;53.688;10.748;2022-12-18T04:09:14;42.93;;;19.87;;
32094;SDS011;18608;53.688;10.748;2022-12-18T04:11:40;43.10;;;21.07;;
32094;SDS011;18608;53.688;10.748;2022-12-18T04:14:09;40.40;;;18.77;;
32094;SDS011;18608;53.688;10.748;2022-12-18T04:16:35;49.47;;;20.33;;
32094;SDS011;18608;53.688;10.748;2022-12-18T04:19:00;47.40;;;20.33;;
32094;SDS011;18608;53.688;10.748;2022-12-18T04:21:26;40.90;;;20.10;;
32094;SDS011;18608;53.688;10.748;2022-12-18T04:23:51;43.60;;;19.30;;
32094;SDS011;18608;53.688;10.748;2022-12-18T04:26:17;45.37;;;17.27;;
32094;SDS011;18608;53.688;10.748;2022-12-18T04:28:42;38.73;;;18.13;;
32094;SDS011;18608;53.688;10.748;2022-12-18T04:31:08;48.33;;;21.10;;
32094;SDS011;18608;53.688;10.748;2022-12-18T04:33:34;39.40;;;17.37;;
32094;SDS011;18608;53.688;10.748;2022-12-18T04:35:59;49.53;;;20.13;;
32094;SDS011;18608;53.688;10.748;2022-12-18T04:38:25;32.40;;;17.67;;
32094;SDS011;18608;53.688;10.748;2022-12-18T04:40:50;32.73;;;18.10;;
32094;SDS011;18608;53.688;10.748;2022-12-18T04:43:16;49.00;;;17.60;;
32094;SDS011;18608;53.688;10.748;2022-12-18T04:45:42;30.53;;;16.70;;
32094;SDS011;18608;53.688;10.748;2022-12-18T04:48:08;38.30;;;19.50;;
32094;SDS011;18608;53.688;10.748;2022-12-18T04:50:33;34.07;;;18.30;;
32094;SDS011;18608;53.688;10.748;2022-12-18T04:52:59;42.37;;;17.23;;
32094;SDS011;18608;53.688;10.748;2022-12-18T04:55:25;36.00;;;16.90;;
32094;SDS011;18608;53.688;10.748;2022-12-18T04:57:50;46.40;;;19.53;;
32094;SDS011;18608;53.688;10.748;2022-12-18T05:00:16;42.80;;;16.20;;
32094;SDS011;18608;53.688;10.748;2022-12-18T05:02:42;36.23;;;19.30;;
32094;SDS011;18608;53.688;10.748;2022-12-18T05:05:08;42.60;;;17.07;;
32094;SDS011;18608;53.688;10.748;2022-12-18T05:07:34;42.30;;;19.40;;
32094;SDS011;18608;53.688;10.748;2022-12-18T05:09:59;38.90;;;19.40;;
32094;SDS011;18608;53.688;10.748;2022-12-18T05:12:25;34.43;;;17.50;;
32094;SDS011;18608;53.688;10.748;2022-12-18T05:14:51;36.30;;;17.37;;
32094;SDS011;18608;53.688;10.748;2022-12-18T05:17:17;35.43;;;18.17;;
32094;SDS011;18608;53.688;10.748;2022-12-18T05:19:42;35.10;;;15.57;;
32094;SDS011;18608;53.688;10.748;2022-12-18T05:22:08;25.27;;;15.73;;
32094;SDS011;18608;53.688;10.748;2022-12-18T05:24:34;46.33;;;18.27;;
32094;SDS011;18608;53.688;10.748;2022-12-18T05:27:00;32.17;;;16.40;;
32094;SDS011;18608;53.688;10.748;2022-12-18T05:29:26;31.07;;;16.60;;
32094;SDS011;18608;53.688;10.748;2022-12-18T05:31:51;42.37;;;16.27;;
32094;SDS011;18608;53.688;10.748;2022-12-18T05:34:17;34.03;;;16.60;;
32094;SDS011;18608;53.688;10.748;2022-12-18T05:36:42;30.17;;;16.10;;
32094;SDS011;18608;53.688;10.748;2022-12-18T05:39:08;37.33;;;17.33;;
32094;SDS011;18608;53.688;10.748;2022-12-18T05:41:34;38.40;;;15.17;;
32094;SDS011;18608;53.688;10.748;2022-12-18T05:43:59;36.80;;;16.47;;
32094;SDS011;18608;53.688;10.748;2022-12-18T05:46:25;41.60;;;17.53;;
32094;SDS011;18608;53.688;10.748;2022-12-18T05:48:51;37.30;;;17.17;;
32094;SDS011;18608;53.688;10.748;2022-12-18T05:51:18;36.90;;;14.77;;
32094;SDS011;18608;53.688;10.748;2022-12-18T05:53:46;47.03;;;16.20;;
32094;SDS011;18608;53.688;10.748;2022-12-18T05:56:13;33.13;;;14.70;;
32094;SDS011;18608;53.688;10.748;2022-12-18T05:58:40;41.83;;;18.23;;
32094;SDS011;18608;53.688;10.748;2022-12-18T06:01:16;32.37;;;16.53;;
32094;SDS011;18608;53.688;10.748;2022-12-18T06:03:44;40.70;;;16.40;;
32094;SDS011;18608;53.688;10.748;2022-12-18T06:06:14;33.13;;;15.33;;
32094;SDS011;18608;53.688;10.748;2022-12-18T06:08:39;38.30;;;17.27;;
32094;SDS011;18608;53.688;10.748;2022-12-18T06:11:05;34.00;;;15.93;;
32094;SDS011;18608;53.688;10.748;2022-12-18T06:13:31;31.70;;;14.93;;
32094;SDS011;18608;53.688;10.748;2022-12-18T06:15:56;34.97;;;16.60;;
32094;SDS011;18608;53.688;10.748;2022-12-18T06:18:22;37.60;;;14.80;;
32094;SDS011;18608;53.688;10.748;2022-12-18T06:20:57;37.30;;;15.37;;
32094;SDS011;18608;53.688;10.748;2022-12-18T06:23:23;40.17;;;15.60;;
32094;SDS011;18608;53.688;10.748;2022-12-18T06:25:49;46.73;;;17.93;;
32094;SDS011;18608;53.688;10.748;2022-12-18T06:28:15;36.00;;;14.27;;
32094;SDS011;18608;53.688;10.748;2022-12-18T06:30:43;29.57;;;14.27;;
32094;SDS011;18608;53.688;10.748;2022-12-18T06:33:09;28.77;;;13.87;;
32094;SDS011;18608;53.688;10.748;2022-12-18T06:35:35;27.30;;;13.87;;
32094;SDS011;18608;53.688;10.748;2022-12-18T06:38:01;37.43;;;14.80;;
32094;SDS011;18608;53.688;10.748;2022-12-18T06:40:28;33.30;;;14.67;;
32094;SDS011;18608;53.688;10.748;2022-12-18T06:42:54;37.83;;;14.53;;
32094;SDS011;18608;53.688;10.748;2022-12-18T06:45:19;27.60;;;12.70;;
32094;SDS011;18608;53.688;10.748;2022-12-18T06:47:45;35.10;;;15.07;;
32094;SDS011;18608;53.688;10.748;2022-12-18T06:50:11;31.80;;;15.03;;
32094;SDS011;18608;53.688;10.748;2022-12-18T06:52:37;27.77;;;13.40;;
32094;SDS011;18608;53.688;10.748;2022-12-18T06:55:05;37.73;;;14.70;;
32094;SDS011;18608;53.688;10.748;2022-12-18T06:57:33;27.63;;;13.97;;
32094;SDS011;18608;53.688;10.748;2022-12-18T06:59:59;26.70;;;12.50;;
32094;SDS011;18608;53.688;10.748;2022-12-18T07:02:25;33.10;;;15.70;;
32094;SDS011;18608;53.688;10.748;2022-12-18T07:04:50;32.00;;;14.70;;
32094;SDS011;18608;53.688;10.748;2022-12-18T07:07:16;41.43;;;14.03;;
32094;SDS011;18608;53.688;10.748;2022-12-18T07:09:41;31.17;;;13.23;;
32094;SDS011;18608;53.688;10.748;2022-12-18T07:12:07;31.53;;;14.43;;
32094;SDS011;18608;53.688;10.748;2022-12-18T07:14:33;29.27;;;13.67;;
32094;SDS011;18608;53.688;10.748;2022-12-18T07:16:59;33.90;;;16.00;;
32094;SDS011;18608;53.688;10.748;2022-12-18T07:19:24;36.37;;;16.27;;
32094;SDS011;18608;53.688;10.748;2022-12-18T07:21:50;37.77;;;14.27;;
32094;SDS011;18608;53.688;10.748;2022-12-18T07:24:16;31.33;;;14.10;;
32094;SDS011;18608;53.688;10.748;2022-12-18T07:26:42;36.70;;;16.50;;
32094;SDS011;18608;53.688;10.748;2022-12-18T07:29:10;34.27;;;14.53;;
32094;SDS011;18608;53.688;10.748;2022-12-18T07:31:35;40.70;;;14.80;;
32094;SDS011;18608;53.688;10.748;2022-12-18T07:34:01;37.27;;;15.53;;
32094;SDS011;18608;53.688;10.748;2022-12-18T07:36:26;27.63;;;13.30;;
32094;SDS011;18608;53.688;10.748;2022-12-18T07:38:52;36.13;;;15.40;;
32094;SDS011;18608;53.688;10.748;2022-12-18T07:41:18;29.57;;;13.13;;
32094;SDS011;18608;53.688;10.748;2022-12-18T07:43:44;41.97;;;15.43;;
32094;SDS011;18608;53.688;10.748;2022-12-18T07:46:09;37.00;;;14.83;;
32094;SDS011;18608;53.688;10.748;2022-12-18T07:48:38;39.57;;;17.77;;
32094;SDS011;18608;53.688;10.748;2022-12-18T07:51:07;35.37;;;15.83;;
32094;SDS011;18608;53.688;10.748;2022-12-18T07:53:34;35.67;;;15.70;;
32094;SDS011;18608;53.688;10.748;2022-12-18T07:56:01;28.70;;;12.83;;
32094;SDS011;18608;53.688;10.748;2022-12-18T07:58:29;28.97;;;12.57;;
32094;SDS011;18608;53.688;10.748;2022-12-18T08:01:29;29.60;;;14.17;;
32094;SDS011;18608;53.688;10.748;2022-12-18T08:03:47;29.53;;;14.43;;
32094;SDS011;18608;53.688;10.748;2022-12-18T08:06:13;37.57;;;13.27;;
32094;SDS011;18608;53.688;10.748;2022-12-18T08:08:39;28.13;;;14.30;;
32094;SDS011;18608;53.688;10.748;2022-12-18T08:11:06;36.63;;;13.93;;
32094;SDS011;18608;53.688;10.748;2022-12-18T08:13:32;41.40;;;14.23;;
32094;SDS011;18608;53.688;10.748;2022-12-18T08:18:27;28.57;;;14.47;;
32094;SDS011;18608;53.688;10.748;2022-12-18T08:20:53;28.23;;;12.13;;
32094;SDS011;18608;53.688;10.748;2022-12-18T08:23:19;33.37;;;12.70;;
32094;SDS011;18608;53.688;10.748;2022-12-18T08:25:45;31.73;;;13.53;;
32094;SDS011;18608;53.688;10.748;2022-12-18T08:28:11;32.30;;;13.90;;
32094;SDS011;18608;53.688;10.748;2022-12-18T08:30:36;32.87;;;12.67;;
32094;SDS011;18608;53.688;10.748;2022-12-18T08:33:02;32.30;;;12.93;;
32094;SDS011;18608;53.688;10.748;2022-12-18T08:35:28;32.43;;;14.57;;
32094;SDS011;18608;53.688;10.748;2022-12-18T08:37:53;28.50;;;12.27;;
32094;SDS011;18608;53.688;10.748;2022-12-18T08:40:19;34.23;;;14.73;;
32094;SDS011;18608;53.688;10.748;2022-12-18T08:42:45;37.20;;;14.37;;
32094;SDS011;18608;53.688;10.748;2022-12-18T08:45:29;23.73;;;12.23;;
32094;SDS011;18608;53.688;10.748;2022-12-18T08:47:54;26.10;;;11.53;;
32094;SDS011;18608;53.688;10.748;2022-12-18T08:50:20;33.53;;;13.53;;
32094;SDS011;18608;53.688;10.748;2022-12-18T08:52:46;33.10;;;15.27;;
32094;SDS011;18608;53.688;10.748;2022-12-18T08:55:11;24.93;;;12.77;;
32094;SDS011;18608;53.688;10.748;2022-12-18T08:57:37;32.73;;;14.50;;
32094;SDS011;18608;53.688;10.748;2022-12-18T09:00:03;28.27;;;12.30;;
32094;SDS011;18608;53.688;10.748;2022-12-18T09:02:29;27.50;;;11.43;;
32094;SDS011;18608;53.688;10.748;2022-12-18T09:04:55;29.50;;;13.00;;
32094;SDS011;18608;53.688;10.748;2022-12-18T09:07:20;38.43;;;14.80;;
32094;SDS011;18608;53.688;10.748;2022-12-18T09:09:46;28.43;;;12.03;;
32094;SDS011;18608;53.688;10.748;2022-12-18T09:12:12;26.83;;;12.53;;
32094;SDS011;18608;53.688;10.748;2022-12-18T09:14:37;32.87;;;12.70;;
32094;SDS011;18608;53.688;10.748;2022-12-18T09:17:03;25.13;;;12.63;;
32094;SDS011;18608;53.688;10.748;2022-12-18T09:19:28;25.50;;;11.93;;
32094;SDS011;18608;53.688;10.748;2022-12-18T09:21:54;28.23;;;11.97;;
32094;SDS011;18608;53.688;10.748;2022-12-18T09:24:19;30.90;;;13.40;;
32094;SDS011;18608;53.688;10.748;2022-12-18T09:26:52;36.13;;;14.37;;
32094;SDS011;18608;53.688;10.748;2022-12-18T09:29:19;22.27;;;12.53;;
32094;SDS011;18608;53.688;10.748;2022-12-18T09:31:45;29.17;;;13.73;;
32094;SDS011;18608;53.688;10.748;2022-12-18T09:34:11;26.40;;;13.07;;
32094;SDS011;18608;53.688;10.748;2022-12-18T09:36:37;30.70;;;14.77;;
32094;SDS011;18608;53.688;10.748;2022-12-18T09:39:03;34.93;;;12.20;;
32094;SDS011;18608;53.688;10.748;2022-12-18T09:47:35;25.90;;;12.07;;
32094;SDS011;18608;53.688;10.748;2022-12-18T09:49:42;22.50;;;11.37;;
32094;SDS011;18608;53.688;10.748;2022-12-18T09:52:19;34.87;;;13.20;;
32094;SDS011;18608;53.688;10.748;2022-12-18T09:55:06;28.40;;;12.60;;
32094;SDS011;18608;53.688;10.748;2022-12-18T09:57:56;31.90;;;11.97;;
32094;SDS011;18608;53.688;10.748;2022-12-18T10:00:34;29.03;;;12.10;;
32094;SDS011;18608;53.688;10.748;2022-12-18T10:03:01;30.33;;;10.80;;
32094;SDS011;18608;53.688;10.748;2022-12-18T10:08:19;27.70;;;11.70;;
32094;SDS011;18608;53.688;10.748;2022-12-18T10:10:53;31.00;;;12.00;;
32094;SDS011;18608;53.688;10.748;2022-12-18T10:13:42;25.40;;;12.17;;
32094;SDS011;18608;53.688;10.748;2022-12-18T10:16:40;26.37;;;13.10;;
32094;SDS011;18608;53.688;10.748;2022-12-18T10:24:23;24.63;;;11.20;;
32094;SDS011;18608;53.688;10.748;2022-12-18T10:26:55;30.60;;;13.93;;
32094;SDS011;18608;53.688;10.748;2022-12-18T10:29:33;30.93;;;12.83;;
32094;SDS011;18608;53.688;10.748;2022-12-18T10:31:59;26.33;;;12.77;;
32094;SDS011;18608;53.688;10.748;2022-12-18T10:34:25;29.13;;;13.73;;
32094;SDS011;18608;53.688;10.748;2022-12-18T10:36:50;24.27;;;11.13;;
32094;SDS011;18608;53.688;10.748;2022-12-18T10:39:20;28.20;;;13.40;;
32094;SDS011;18608;53.688;10.748;2022-12-18T10:41:48;31.53;;;14.37;;
32094;SDS011;18608;53.688;10.748;2022-12-18T10:46:43;39.73;;;12.77;;
32094;SDS011;18608;53.688;10.748;2022-12-18T10:49:20;34.60;;;13.00;;
32094;SDS011;18608;53.688;10.748;2022-12-18T10:52:05;28.63;;;12.00;;
32094;SDS011;18608;53.688;10.748;2022-12-18T10:54:45;19.67;;;11.60;;
32094;SDS011;18608;53.688;10.748;2022-12-18T10:57:14;30.90;;;13.47;;
32094;SDS011;18608;53.688;10.748;2022-12-18T11:03:00;36.73;;;12.33;;
32094;SDS011;18608;53.688;10.748;2022-12-18T11:05:33;24.27;;;12.80;;
32094;SDS011;18608;53.688;10.748;2022-12-18T11:07:59;30.37;;;12.43;;
32094;SDS011;18608;53.688;10.748;2022-12-18T11:10:47;28.37;;;12.10;;
32094;SDS011;18608;53.688;10.748;2022-12-18T11:13:16;28.33;;;12.80;;
32094;SDS011;18608;53.688;10.748;2022-12-18T11:15:45;22.67;;;10.60;;
32094;SDS011;18608;53.688;10.748;2022-12-18T11:18:18;24.77;;;12.50;;
32094;SDS011;18608;53.688;10.748;2022-12-18T11:20:53;27.53;;;12.87;;
32094;SDS011;18608;53.688;10.748;2022-12-18T11:23:22;22.90;;;10.80;;
32094;SDS011;18608;53.688;10.748;2022-12-18T11:25:59;26.80;;;14.10;;
32094;SDS011;18608;53.688;10.748;2022-12-18T11:31:27;26.87;;;12.53;;
32094;SDS011;18608;53.688;10.748;2022-12-18T11:36:29;31.47;;;13.13;;
32094;SDS011;18608;53.688;10.748;2022-12-18T11:38:59;29.57;;;12.90;;
32094;SDS011;18608;53.688;10.748;2022-12-18T11:41:41;34.07;;;13.63;;
32094;SDS011;18608;53.688;10.748;2022-12-18T11:47:28;33.00;;;14.27;;
32094;SDS011;18608;53.688;10.748;2022-12-18T11:50:12;33.13;;;13.80;;
32094;SDS011;18608;53.688;10.748;2022-12-18T11:52:42;26.57;;;11.53;;
32094;SDS011;18608;53.688;10.748;2022-12-18T11:55:12;28.13;;;11.77;;
32094;SDS011;18608;53.688;10.748;2022-12-18T12:00:13;40.00;;;14.60;;
32094;SDS011;18608;53.688;10.748;2022-12-18T12:05:31;32.33;;;15.10;;
32094;SDS011;18608;53.688;10.748;2022-12-18T12:13:29;31.00;;;13.33;;
32094;SDS011;18608;53.688;10.748;2022-12-18T12:21:24;33.43;;;14.80;;
32094;SDS011;18608;53.688;10.748;2022-12-18T12:38:03;35.00;;;13.90;;
32094;SDS011;18608;53.688;10.748;2022-12-18T12:40:44;26.70;;;12.93;;
32094;SDS011;18608;53.688;10.748;2022-12-18T12:43:41;35.30;;;14.50;;
32094;SDS011;18608;53.688;10.748;2022-12-18T12:46:10;41.30;;;13.83;;
32094;SDS011;18608;53.688;10.748;2022-12-18T12:51:50;32.70;;;12.87;;
32094;SDS011;18608;53.688;10.748;2022-12-18T12:53:59;24.37;;;12.70;;
32094;SDS011;18608;53.688;10.748;2022-12-18T12:56:32;29.47;;;14.33;;
32094;SDS011;18608;53.688;10.748;2022-12-18T12:59:15;37.37;;;14.70;;
32094;SDS011;18608;53.688;10.748;2022-12-18T13:01:54;24.13;;;12.43;;
32094;SDS011;18608;53.688;10.748;2022-12-18T13:15:22;32.53;;;14.77;;
32094;SDS011;18608;53.688;10.748;2022-12-18T13:23:49;39.77;;;15.33;;
32094;SDS011;18608;53.688;10.748;2022-12-18T13:25:54;31.97;;;13.70;;
32094;SDS011;18608;53.688;10.748;2022-12-18T13:31:08;24.00;;;12.20;;
32094;SDS011;18608;53.688;10.748;2022-12-18T13:38:44;43.67;;;16.03;;
32094;SDS011;18608;53.688;10.748;2022-12-18T13:41:26;46.00;;;15.07;;
32094;SDS011;18608;53.688;10.748;2022-12-18T13:43:54;35.53;;;13.40;;
32094;SDS011;18608;53.688;10.748;2022-12-18T13:51:23;40.83;;;17.33;;
32094;SDS011;18608;53.688;10.748;2022-12-18T13:56:48;28.87;;;12.77;;
32094;SDS011;18608;53.688;10.748;2022-12-18T13:59:18;30.90;;;14.73;;
32094;SDS011;18608;53.688;10.748;2022-12-18T14:01:47;38.40;;;15.03;;
32094;SDS011;18608;53.688;10.748;2022-12-18T14:07:01;37.47;;;15.97;;
32094;SDS011;18608;53.688;10.748;2022-12-18T14:09:29;34.93;;;14.00;;
32094;SDS011;18608;53.688;10.748;2022-12-18T14:12:00;28.47;;;14.50;;
32094;SDS011;18608;53.688;10.748;2022-12-18T14:14:46;36.97;;;15.03;;
32094;SDS011;18608;53.688;10.748;2022-12-18T14:17:14;51.30;;;16.20;;
32094;SDS011;18608;53.688;10.748;2022-12-18T14:19:41;36.97;;;15.43;;
32094;SDS011;18608;53.688;10.748;2022-12-18T14:22:21;38.10;;;15.23;;
32094;SDS011;18608;53.688;10.748;2022-12-18T14:27:38;41.07;;;15.40;;
32094;SDS011;18608;53.688;10.748;2022-12-18T14:30:28;33.27;;;14.43;;
32094;SDS011;18608;53.688;10.748;2022-12-18T14:33:03;32.07;;;13.80;;
32094;SDS011;18608;53.688;10.748;2022-12-18T14:35:32;39.73;;;12.67;;
32094;SDS011;18608;53.688;10.748;2022-12-18T14:38:59;40.43;;;16.03;;
32094;SDS011;18608;53.688;10.748;2022-12-18T14:40:58;38.73;;;14.67;;
32094;SDS011;18608;53.688;10.748;2022-12-18T14:43:25;33.17;;;15.27;;
32094;SDS011;18608;53.688;10.748;2022-12-18T14:45:52;43.80;;;15.63;;
32094;SDS011;18608;53.688;10.748;2022-12-18T14:48:24;38.23;;;15.30;;
32094;SDS011;18608;53.688;10.748;2022-12-18T14:53:47;38.10;;;15.90;;
32094;SDS011;18608;53.688;10.748;2022-12-18T14:56:22;32.87;;;14.07;;
32094;SDS011;18608;53.688;10.748;2022-12-18T14:58:50;35.70;;;13.80;;
32094;SDS011;18608;53.688;10.748;2022-12-18T15:01:20;37.80;;;14.80;;
32094;SDS011;18608;53.688;10.748;2022-12-18T15:03:47;40.47;;;15.80;;
32094;SDS011;18608;53.688;10.748;2022-12-18T15:06:17;27.47;;;12.00;;
32094;SDS011;18608;53.688;10.748;2022-12-18T15:08:50;31.50;;;12.93;;
32094;SDS011;18608;53.688;10.748;2022-12-18T15:13:52;37.03;;;14.00;;
32094;SDS011;18608;53.688;10.748;2022-12-18T15:16:17;26.53;;;12.90;;
32094;SDS011;18608;53.688;10.748;2022-12-18T15:18:43;38.53;;;16.63;;
32094;SDS011;18608;53.688;10.748;2022-12-18T15:21:11;34.27;;;13.80;;
32094;SDS011;18608;53.688;10.748;2022-12-18T15:23:51;30.77;;;14.57;;
32094;SDS011;18608;53.688;10.748;2022-12-18T15:26:18;37.13;;;15.20;;
32094;SDS011;18608;53.688;10.748;2022-12-18T15:28:49;35.30;;;14.47;;
32094;SDS011;18608;53.688;10.748;2022-12-18T15:36:18;34.77;;;16.13;;
32094;SDS011;18608;53.688;10.748;2022-12-18T15:38:53;35.80;;;13.67;;
32094;SDS011;18608;53.688;10.748;2022-12-18T15:41:20;36.37;;;15.10;;
32094;SDS011;18608;53.688;10.748;2022-12-18T15:43:47;34.40;;;14.50;;
32094;SDS011;18608;53.688;10.748;2022-12-18T15:46:16;25.50;;;14.23;;
32094;SDS011;18608;53.688;10.748;2022-12-18T15:48:50;33.97;;;14.63;;
32094;SDS011;18608;53.688;10.748;2022-12-18T15:51:18;25.83;;;13.53;;
32094;SDS011;18608;53.688;10.748;2022-12-18T15:53:57;39.77;;;14.50;;
32094;SDS011;18608;53.688;10.748;2022-12-18T15:56:25;34.20;;;13.60;;
32094;SDS011;18608;53.688;10.748;2022-12-18T15:59:19;32.47;;;14.90;;
32094;SDS011;18608;53.688;10.748;2022-12-18T16:01:49;27.47;;;10.47;;
32094;SDS011;18608;53.688;10.748;2022-12-18T16:04:18;35.73;;;15.80;;
32094;SDS011;18608;53.688;10.748;2022-12-18T16:06:45;28.53;;;13.23;;
32094;SDS011;18608;53.688;10.748;2022-12-18T16:09:11;34.03;;;16.20;;
32094;SDS011;18608;53.688;10.748;2022-12-18T16:11:37;28.13;;;14.20;;
32094;SDS011;18608;53.688;10.748;2022-12-18T16:16:55;30.80;;;12.17;;
32094;SDS011;18608;53.688;10.748;2022-12-18T16:19:23;32.90;;;14.93;;
32094;SDS011;18608;53.688;10.748;2022-12-18T16:21:50;36.10;;;14.60;;
32094;SDS011;18608;53.688;10.748;2022-12-18T16:24:17;37.10;;;14.67;;
32094;SDS011;18608;53.688;10.748;2022-12-18T16:26:46;38.20;;;15.50;;
32094;SDS011;18608;53.688;10.748;2022-12-18T16:29:13;26.13;;;12.87;;
32094;SDS011;18608;53.688;10.748;2022-12-18T16:31:39;32.97;;;14.10;;
32094;SDS011;18608;53.688;10.748;2022-12-18T16:36:47;32.03;;;12.27;;
32094;SDS011;18608;53.688;10.748;2022-12-18T16:39:14;34.20;;;15.37;;
32094;SDS011;18608;53.688;10.748;2022-12-18T16:41:39;33.93;;;15.10;;
32094;SDS011;18608;53.688;10.748;2022-12-18T16:44:05;34.37;;;14.27;;
32094;SDS011;18608;53.688;10.748;2022-12-18T16:46:31;34.50;;;14.40;;